Terminal Aerodrome Forecast
Issued by NWS

Home | Current Version | Previous Version | Text Only | Print | Product List | Glossary On
Versions: 1 2 3 4 5 6 7 8 9 10 11 12 13 14 15
000
FTUS42 KTBW 281700
TAFPGD
TAF
KPGD 281740Z 2818/2918 26012KT P6SM VCTS SCT035CB
     FM282000 27013KT P6SM SCT040
     FM290000 27009KT P6SM SCT250
     FM291200 25007KT P6SM VCSH SCT025
     FM291500 27012KT P6SM VCTS SCT025CB BKN040=

USA.gov is the U.S. government's official web portal to all federal, state and local government web resources and services.